Strona główna
METAR-TAF:

METAR-TAF

Lotnisko :

Holland, Michigan, Stany Zjednoczone

Szerokość geograficzna: 42-44-46N, Długość geograficzna: 086-05-48W, wysokość: 209 m

Aktualna obserwacja pogody

Raport powstał 51 minut temu, godzina 21:53 UTC
Wiatr 8 kt od zachód
Temperatura -6°C
Wilgotność 68%
Ciśnienie 1022 hPa
Widzialność: 16.1 km
Zachmurzenie całkowite na wysokości 3200 ft

METAR: KBIV 102153Z AUTO 27008KT 10SM OVC032 M06/M11 A3017 RMK AO2 SNE11 SLP228 P0000 T10561106

czas: 17:44 (22:44 UTC)


TAF: brakujący

Obserwacja i prognoza pogody dla ponad 4000 lotnisk (raport METAR i TAF).

Dostępne stacje oznaczono żółtymi i czerwonymi punktami na mapie.

Najedź kursorem aby zobaczyć nazwę stacji.

Kliknij aby zobaczyć obserwacje i prognozy pogody.

Aby zmienić mapę: kliknij na zielony przycisk z czarnym krzyżykiem, aby powiększyć; na zielony przycisk z myślnikiem, aby pomniejszyć; na zielone strzałki, aby przejść do map sąsiednich.


METAR-TAF: